createdAt,value
2019-03-29T00:00:06.399Z,42.90
2019-03-29T00:02:39.893Z,43.38
2019-03-29T00:05:11.967Z,43.13
2019-03-29T00:07:44.090Z,39.53
2019-03-29T00:10:16.145Z,38.65
2019-03-29T00:12:48.437Z,36.75
2019-03-29T00:15:20.830Z,40.63
2019-03-29T00:17:52.930Z,43.02
2019-03-29T00:20:25.145Z,61.77
2019-03-29T00:22:57.325Z,55.00
2019-03-29T00:25:29.389Z,34.43
2019-03-29T00:28:01.267Z,35.28
2019-03-29T00:30:33.581Z,33.98
2019-03-29T00:33:05.829Z,34.55
2019-03-29T00:35:37.645Z,38.58
2019-03-29T00:38:09.870Z,39.88
2019-03-29T00:40:41.901Z,41.57
2019-03-29T00:43:13.906Z,38.38
2019-03-29T00:45:46.285Z,45.35
2019-03-29T00:48:19.621Z,46.77
2019-03-29T00:50:51.984Z,58.90
2019-03-29T00:53:24.943Z,58.83
2019-03-29T00:55:57.343Z,45.35
2019-03-29T00:58:29.602Z,57.27
2019-03-29T01:01:01.521Z,52.45
2019-03-29T01:03:33.520Z,42.27
2019-03-29T01:06:05.725Z,43.23
2019-03-29T01:08:38.123Z,48.83
2019-03-29T01:11:11.046Z,46.08
2019-03-29T01:13:43.197Z,43.83
2019-03-29T01:16:15.700Z,39.25
2019-03-29T01:18:47.912Z,38.50
2019-03-29T01:21:20.004Z,42.50
2019-03-29T01:23:51.993Z,34.13
2019-03-29T01:26:23.945Z,29.07
2019-03-29T01:28:56.180Z,28.17
2019-03-29T01:31:28.276Z,32.17
2019-03-29T01:34:00.395Z,28.77
2019-03-29T01:36:32.382Z,28.90
2019-03-29T01:39:05.993Z,31.37
2019-03-29T01:41:37.897Z,30.05
2019-03-29T01:44:09.739Z,33.63
2019-03-29T01:46:41.579Z,36.95
2019-03-29T01:49:13.954Z,35.80
2019-03-29T01:51:46.009Z,36.73
2019-03-29T01:54:18.440Z,29.05
2019-03-29T01:56:50.311Z,25.92
2019-03-29T01:59:22.243Z,32.08
2019-03-29T02:01:54.959Z,28.20
2019-03-29T02:04:27.443Z,25.48
2019-03-29T02:06:59.726Z,21.60
2019-03-29T02:09:31.864Z,29.25
2019-03-29T02:12:03.987Z,23.27
2019-03-29T02:14:35.961Z,24.25
2019-03-29T02:17:07.995Z,18.05
2019-03-29T02:19:40.146Z,16.27
2019-03-29T02:22:12.243Z,13.00
2019-03-29T02:24:44.574Z,13.30
2019-03-29T02:27:16.786Z,16.35
2019-03-29T02:29:48.933Z,14.45
2019-03-29T02:32:21.066Z,14.85
2019-03-29T02:34:53.186Z,14.58
2019-03-29T02:37:25.339Z,14.60
2019-03-29T02:39:57.606Z,13.93
2019-03-29T02:42:29.614Z,12.37
2019-03-29T02:45:03.403Z,12.82
2019-03-29T02:47:35.474Z,10.63
2019-03-29T02:50:09.150Z,9.78
2019-03-29T02:52:41.181Z,8.70
2019-03-29T02:55:13.413Z,8.18
2019-03-29T02:57:45.714Z,8.68
2019-03-29T03:00:18.223Z,8.20
2019-03-29T03:02:50.439Z,9.13
2019-03-29T03:05:22.638Z,8.48
2019-03-29T03:07:54.624Z,7.25
2019-03-29T03:10:26.726Z,8.23
2019-03-29T03:12:59.503Z,6.83
2019-03-29T03:15:33.436Z,8.15
2019-03-29T03:18:05.479Z,7.80
2019-03-29T03:20:37.318Z,7.78
2019-03-29T03:23:09.490Z,7.78
2019-03-29T03:25:41.993Z,7.55
2019-03-29T03:28:14.009Z,7.55
2019-03-29T03:30:46.311Z,11.53
2019-03-29T03:33:18.602Z,6.47
2019-03-29T03:35:51.110Z,7.33
2019-03-29T03:38:22.944Z,10.50
2019-03-29T03:40:55.319Z,9.08
2019-03-29T03:43:27.287Z,9.68
2019-03-29T03:45:59.316Z,7.62
2019-03-29T03:48:31.543Z,11.05
2019-03-29T03:51:04.469Z,8.60
2019-03-29T03:53:36.625Z,8.33
2019-03-29T03:56:10.896Z,7.65
2019-03-29T03:58:44.731Z,6.95
2019-03-29T04:01:16.767Z,5.78
2019-03-29T04:03:48.950Z,5.47
2019-03-29T04:06:21.207Z,5.78
2019-03-29T04:08:53.184Z,5.75
2019-03-29T04:11:25.341Z,5.65
2019-03-29T04:13:57.538Z,5.37
2019-03-29T04:16:29.719Z,6.35
2019-03-29T04:19:01.697Z,5.62
2019-03-29T04:21:33.677Z,5.25
2019-03-29T04:24:06.199Z,6.37
2019-03-29T04:26:38.194Z,7.83
2019-03-29T04:29:10.362Z,7.17
2019-03-29T04:31:42.496Z,6.10
2019-03-29T04:34:14.554Z,6.20
2019-03-29T04:36:46.604Z,8.40
2019-03-29T04:39:19.279Z,8.03
2019-03-29T04:41:51.338Z,7.40
2019-03-29T04:44:23.577Z,7.23
2019-03-29T04:46:55.564Z,8.30
2019-03-29T04:49:27.820Z,7.95
2019-03-29T04:51:59.917Z,7.78
2019-03-29T04:54:32.002Z,7.62
2019-03-29T04:57:04.015Z,9.80
2019-03-29T04:59:36.409Z,9.18
2019-03-29T05:02:08.616Z,8.75
2019-03-29T05:04:40.949Z,8.43
2019-03-29T05:07:13.602Z,8.63
2019-03-29T05:09:46.053Z,7.45
2019-03-29T05:12:18.099Z,7.33
2019-03-29T05:14:50.066Z,7.55
2019-03-29T05:17:21.897Z,6.67
2019-03-29T05:19:54.363Z,8.30
2019-03-29T05:22:26.270Z,6.78
2019-03-29T05:24:58.235Z,6.47
2019-03-29T05:27:30.285Z,7.60
2019-03-29T05:30:02.157Z,5.50
2019-03-29T05:32:35.138Z,12.90
2019-03-29T05:35:07.157Z,11.48
2019-03-29T05:37:39.301Z,6.80
2019-03-29T05:40:11.848Z,6.37
2019-03-29T05:42:44.001Z,8.43
2019-03-29T05:45:16.087Z,7.70
2019-03-29T05:47:48.028Z,6.72
2019-03-29T05:50:19.941Z,6.28
2019-03-29T05:52:52.012Z,9.00
2019-03-29T05:55:32.656Z,6.72
2019-03-29T05:57:57.724Z,6.97
2019-03-29T06:00:29.780Z,6.83
2019-03-29T06:03:01.601Z,6.60
2019-03-29T06:05:34.154Z,6.83
2019-03-29T06:08:07.093Z,8.30
2019-03-29T06:10:48.943Z,7.20
2019-03-29T06:13:13.110Z,10.48
2019-03-29T06:15:45.286Z,11.40
2019-03-29T06:18:18.713Z,11.30
2019-03-29T06:20:52.451Z,9.60
2019-03-29T06:23:24.352Z,8.38
2019-03-29T06:25:56.845Z,9.70
2019-03-29T06:28:30.120Z,8.25
2019-03-29T06:31:02.079Z,8.13
2019-03-29T06:33:34.536Z,7.15
2019-03-29T06:36:09.290Z,8.13
2019-03-29T06:38:43.734Z,5.72
2019-03-29T06:41:15.689Z,8.00
2019-03-29T06:43:47.819Z,7.40
2019-03-29T06:46:21.042Z,6.45
2019-03-29T06:48:53.245Z,8.38
2019-03-29T06:51:25.538Z,8.18
2019-03-29T06:53:59.996Z,10.43
2019-03-29T06:56:31.983Z,5.17
2019-03-29T06:59:03.985Z,5.33
2019-03-29T07:01:36.274Z,6.92
2019-03-29T07:04:08.622Z,8.18
2019-03-29T07:06:40.526Z,7.53
2019-03-29T07:09:12.483Z,11.30
2019-03-29T07:11:44.498Z,14.13
2019-03-29T07:14:17.034Z,14.10
2019-03-29T07:16:48.865Z,10.25
2019-03-29T07:19:21.180Z,7.78
2019-03-29T07:21:53.036Z,9.55
2019-03-29T07:24:25.160Z,10.70
2019-03-29T07:29:27.655Z,7.83
2019-03-29T07:31:59.597Z,10.48
2019-03-29T07:34:31.623Z,12.00
2019-03-29T07:37:05.886Z,11.93
2019-03-29T07:39:37.411Z,9.05
2019-03-29T07:42:10.957Z,8.38
2019-03-29T07:44:43.069Z,10.35
2019-03-29T07:47:14.928Z,8.08
2019-03-29T07:49:47.002Z,9.45
2019-03-29T07:52:20.175Z,6.05
2019-03-29T07:54:52.563Z,7.70
2019-03-29T07:57:24.756Z,5.65
2019-03-29T07:59:56.843Z,5.17
2019-03-29T08:02:29.262Z,6.05
2019-03-29T08:05:01.413Z,6.72
2019-03-29T08:07:33.798Z,8.18
2019-03-29T08:10:06.545Z,8.40
2019-03-29T08:12:40.527Z,7.78
2019-03-29T08:15:12.726Z,8.60
2019-03-29T08:17:44.605Z,9.08
2019-03-29T08:20:38.926Z,6.50
2019-03-29T08:22:50.718Z,6.60
2019-03-29T08:25:22.740Z,10.75
2019-03-29T08:27:54.966Z,11.78
2019-03-29T08:30:27.095Z,9.15
2019-03-29T08:32:59.093Z,6.40
2019-03-29T08:35:31.438Z,6.15
2019-03-29T08:38:06.138Z,7.87
2019-03-29T08:40:37.186Z,7.35
2019-03-29T08:43:09.261Z,4.97
2019-03-29T08:45:41.420Z,10.68
2019-03-29T08:48:13.526Z,8.70
2019-03-29T08:50:45.689Z,6.58
2019-03-29T08:53:17.798Z,7.72
2019-03-29T08:55:49.936Z,7.17
2019-03-29T08:58:21.925Z,8.50
2019-03-29T09:00:54.656Z,6.12
2019-03-29T09:03:26.794Z,8.55
2019-03-29T09:05:58.723Z,7.78
2019-03-29T09:08:31.001Z,7.92
2019-03-29T09:11:02.815Z,6.10
2019-03-29T09:13:35.008Z,10.50
2019-03-29T09:16:06.964Z,5.60
2019-03-29T09:18:39.029Z,6.03
2019-03-29T09:21:11.070Z,9.58
2019-03-29T09:23:43.899Z,10.28
2019-03-29T09:26:16.239Z,8.33
2019-03-29T09:28:48.880Z,7.53
2019-03-29T09:31:20.895Z,9.15
2019-03-29T09:33:53.222Z,7.08
2019-03-29T09:36:25.147Z,9.48
2019-03-29T09:38:57.188Z,7.28
2019-03-29T09:41:29.691Z,6.70
2019-03-29T09:44:01.850Z,9.73
2019-03-29T09:46:33.951Z,10.08
2019-03-29T09:49:08.376Z,12.60
2019-03-29T09:51:40.922Z,10.13
2019-03-29T09:54:13.094Z,7.00
2019-03-29T09:56:48.199Z,8.53
2019-03-29T09:59:19.018Z,11.12
2019-03-29T10:01:53.859Z,9.38
2019-03-29T10:04:24.536Z,10.08
2019-03-29T10:06:56.675Z,8.13
2019-03-29T10:09:29.121Z,8.78
2019-03-29T10:12:01.264Z,9.45
2019-03-29T10:14:33.771Z,10.08
2019-03-29T10:17:05.933Z,10.10
2019-03-29T10:19:39.648Z,7.90
2019-03-29T10:22:11.697Z,11.60
2019-03-29T10:24:43.754Z,12.78
2019-03-29T10:27:18.858Z,9.18
2019-03-29T10:29:49.746Z,11.15
2019-03-29T10:32:22.758Z,10.48
2019-03-29T10:34:54.654Z,9.13
2019-03-29T10:37:26.891Z,8.08
2019-03-29T10:40:00.351Z,10.85
2019-03-29T10:42:32.970Z,9.85
2019-03-29T10:45:05.411Z,9.60
2019-03-29T10:47:43.515Z,9.03
2019-03-29T10:50:11.648Z,10.75
2019-03-29T10:52:43.721Z,10.23
2019-03-29T10:55:16.894Z,9.30
2019-03-29T10:57:48.965Z,9.05
2019-03-29T11:00:34.435Z,8.60
2019-03-29T11:03:07.265Z,9.30
2019-03-29T11:05:40.423Z,7.87
2019-03-29T11:08:12.600Z,8.00
2019-03-29T11:10:44.734Z,7.60
2019-03-29T11:13:16.685Z,8.25
2019-03-29T11:15:48.896Z,7.28
2019-03-29T11:18:21.597Z,7.45
2019-03-29T11:20:53.826Z,5.67
2019-03-29T11:23:25.741Z,7.10
2019-03-29T11:25:57.629Z,6.65
2019-03-29T11:28:30.083Z,5.60
2019-03-29T11:31:01.929Z,8.90
2019-03-29T11:33:33.992Z,8.50
2019-03-29T11:36:05.988Z,6.37
2019-03-29T11:38:38.189Z,8.25
2019-03-29T11:41:10.356Z,8.05
2019-03-29T11:43:42.235Z,6.45
2019-03-29T11:46:14.095Z,7.85
2019-03-29T11:48:45.988Z,5.62
2019-03-29T11:51:19.496Z,6.47
2019-03-29T11:53:51.858Z,7.78
2019-03-29T11:56:23.982Z,7.53
2019-03-29T11:58:56.229Z,6.95
2019-03-29T12:01:28.162Z,7.95
2019-03-29T12:04:00.107Z,6.62
2019-03-29T12:06:31.929Z,8.73
2019-03-29T12:09:05.794Z,9.73
2019-03-29T12:11:37.907Z,7.30
2019-03-29T12:14:10.124Z,5.70
2019-03-29T12:16:42.344Z,8.05
2019-03-29T12:19:14.537Z,6.72
2019-03-29T12:21:46.699Z,9.63
2019-03-29T12:24:19.022Z,9.08
2019-03-29T12:26:51.110Z,8.85
2019-03-29T12:29:23.348Z,7.83
2019-03-29T12:31:55.304Z,7.90
2019-03-29T12:34:27.178Z,11.00
2019-03-29T12:36:59.329Z,9.38
2019-03-29T12:39:31.656Z,8.83
2019-03-29T12:42:03.675Z,7.35
2019-03-29T12:44:36.624Z,9.15
2019-03-29T12:47:08.755Z,7.87
2019-03-29T12:49:40.989Z,7.83
2019-03-29T12:52:13.276Z,11.20
2019-03-29T12:54:45.775Z,7.75
2019-03-29T12:57:18.006Z,9.90
2019-03-29T12:59:50.240Z,8.53
2019-03-29T13:02:22.593Z,8.18
2019-03-29T13:04:54.677Z,7.42
2019-03-29T13:07:26.719Z,5.80
2019-03-29T13:09:59.860Z,6.97
2019-03-29T13:12:31.989Z,7.45
2019-03-29T13:15:04.185Z,8.70
2019-03-29T13:17:36.722Z,7.00
2019-03-29T13:20:09.411Z,6.45
2019-03-29T13:22:41.640Z,7.85
2019-03-29T13:25:13.718Z,6.08
2019-03-29T13:27:45.910Z,9.83
2019-03-29T13:30:17.966Z,8.78
2019-03-29T13:32:50.109Z,6.08
2019-03-29T13:35:22.232Z,7.25
2019-03-29T13:37:54.323Z,7.00
2019-03-29T13:40:26.516Z,7.17
2019-03-29T13:42:58.676Z,6.12
2019-03-29T13:45:30.747Z,6.80
2019-03-29T13:48:02.867Z,6.55
2019-03-29T13:50:35.102Z,7.87
2019-03-29T13:53:08.266Z,7.42
2019-03-29T13:55:40.344Z,6.10
2019-03-29T13:58:12.561Z,7.47
2019-03-29T14:00:44.636Z,7.60
2019-03-29T14:03:16.974Z,8.05
2019-03-29T14:05:49.125Z,7.92
2019-03-29T14:08:21.155Z,6.22
2019-03-29T14:10:53.391Z,9.68
2019-03-29T14:13:25.513Z,8.58
2019-03-29T14:15:57.534Z,5.72
2019-03-29T14:18:29.488Z,7.58
2019-03-29T14:21:01.722Z,5.85
2019-03-29T14:23:33.820Z,7.80
2019-03-29T14:26:05.904Z,8.05
2019-03-29T14:28:38.039Z,7.33
2019-03-29T14:31:10.379Z,8.08
2019-03-29T14:33:42.769Z,8.98
2019-03-29T14:36:14.856Z,6.85
2019-03-29T14:38:47.063Z,5.87
2019-03-29T14:41:19.208Z,6.78
2019-03-29T14:43:51.183Z,9.03
2019-03-29T14:46:23.344Z,6.65
2019-03-29T14:48:55.602Z,8.75
2019-03-29T14:51:27.433Z,9.00
2019-03-29T14:53:59.414Z,6.28
2019-03-29T14:56:31.329Z,9.05
2019-03-29T14:59:03.752Z,7.12
2019-03-29T15:01:35.928Z,7.95
2019-03-29T15:04:08.069Z,7.00
2019-03-29T15:06:39.926Z,8.55
2019-03-29T15:09:11.975Z,8.60
2019-03-29T15:11:43.916Z,13.32
2019-03-29T15:14:15.993Z,7.75
2019-03-29T15:16:48.091Z,6.33
2019-03-29T15:19:20.008Z,6.22
2019-03-29T15:21:52.073Z,14.40
2019-03-29T15:24:24.550Z,5.87
2019-03-29T15:26:56.891Z,9.50
2019-03-29T15:29:28.921Z,8.85
2019-03-29T15:32:01.132Z,6.05
2019-03-29T15:34:33.171Z,6.33
2019-03-29T15:37:05.146Z,7.80
2019-03-29T15:39:37.305Z,5.28
2019-03-29T15:42:09.238Z,6.40
2019-03-29T15:44:41.745Z,6.97
2019-03-29T15:47:14.136Z,9.30
2019-03-29T15:49:55.930Z,7.87
2019-03-29T15:52:20.195Z,7.78
2019-03-29T15:54:52.123Z,8.43
2019-03-29T15:57:24.164Z,7.05
2019-03-29T15:59:56.297Z,10.95
2019-03-29T16:02:29.638Z,7.17
2019-03-29T16:05:01.596Z,6.12
2019-03-29T16:07:35.080Z,8.08
2019-03-29T16:10:08.596Z,8.80
2019-03-29T16:12:40.702Z,8.60
2019-03-29T16:15:12.883Z,7.35
2019-03-29T16:17:45.051Z,8.13
2019-03-29T16:20:17.197Z,7.05
2019-03-29T16:22:49.688Z,8.05
2019-03-29T16:25:21.897Z,8.40
2019-03-29T16:27:53.876Z,7.47
2019-03-29T16:30:26.390Z,7.20
2019-03-29T16:32:58.557Z,7.72
2019-03-29T16:35:30.634Z,6.83
2019-03-29T16:38:02.716Z,5.53
2019-03-29T16:40:34.896Z,6.90
2019-03-29T16:43:06.997Z,7.40
2019-03-29T16:45:47.940Z,10.35
2019-03-29T16:48:12.960Z,6.80
2019-03-29T16:53:15.787Z,6.37
2019-03-29T16:55:48.176Z,10.45
2019-03-29T16:58:20.610Z,6.03
2019-03-29T17:00:52.871Z,8.50
2019-03-29T17:03:25.117Z,7.35
2019-03-29T17:05:57.342Z,7.42
2019-03-29T17:08:29.568Z,7.50
2019-03-29T17:11:01.587Z,8.20
2019-03-29T17:13:33.762Z,7.10
2019-03-29T17:16:06.226Z,5.03
2019-03-29T17:18:40.322Z,7.58
2019-03-29T17:21:12.889Z,5.33
2019-03-29T17:23:45.563Z,6.92
2019-03-29T17:26:18.723Z,7.80
2019-03-29T17:28:51.152Z,6.55
2019-03-29T17:31:23.673Z,6.45
2019-03-29T17:33:57.234Z,7.30
2019-03-29T17:36:29.339Z,6.78
2019-03-29T17:39:01.829Z,9.60
2019-03-29T17:41:36.326Z,5.92
2019-03-29T17:44:08.562Z,6.33
2019-03-29T17:46:40.758Z,6.45
2019-03-29T17:49:12.806Z,8.63
2019-03-29T17:51:47.302Z,8.55
2019-03-29T17:54:19.206Z,12.50
2019-03-29T17:56:51.231Z,7.30
2019-03-29T17:59:23.477Z,8.33
2019-03-29T18:02:08.834Z,9.68
2019-03-29T18:04:29.904Z,9.98
2019-03-29T18:07:02.213Z,10.13
2019-03-29T18:09:34.591Z,11.73
2019-03-29T18:12:07.089Z,8.55
2019-03-29T18:14:39.449Z,10.40
2019-03-29T18:17:11.542Z,13.80
2019-03-29T18:19:43.859Z,12.93
2019-03-29T18:22:16.077Z,11.22
2019-03-29T18:24:48.430Z,9.65
2019-03-29T18:27:20.700Z,10.43
2019-03-29T18:29:53.738Z,9.10
2019-03-29T18:32:26.039Z,9.28
2019-03-29T18:34:58.566Z,9.33
2019-03-29T18:37:30.828Z,25.82
2019-03-29T18:40:05.486Z,7.95
2019-03-29T18:42:37.544Z,9.60
2019-03-29T18:45:10.032Z,10.72
2019-03-29T18:47:42.006Z,10.50
2019-03-29T18:50:14.244Z,11.30
2019-03-29T18:52:47.411Z,8.65
2019-03-29T18:55:19.668Z,11.60
2019-03-29T18:57:51.913Z,12.03
2019-03-29T19:00:32.207Z,10.65
2019-03-29T19:03:04.580Z,8.95
2019-03-29T19:05:36.633Z,12.70
2019-03-29T19:08:08.904Z,13.70
2019-03-29T19:10:40.906Z,18.67
2019-03-29T19:13:13.185Z,14.63
2019-03-29T19:15:45.432Z,15.53
2019-03-29T19:18:17.424Z,15.23
2019-03-29T19:20:49.514Z,14.95
2019-03-29T19:23:21.703Z,12.93
2019-03-29T19:25:54.089Z,13.35
2019-03-29T19:28:26.046Z,14.18
2019-03-29T19:30:58.129Z,12.93
2019-03-29T19:33:30.563Z,12.45
2019-03-29T19:36:02.773Z,11.43
2019-03-29T19:38:35.035Z,14.75
2019-03-29T19:41:06.998Z,12.78
2019-03-29T19:43:39.523Z,16.93
2019-03-29T19:46:11.373Z,19.02
2019-03-29T19:48:43.482Z,13.88
2019-03-29T19:51:15.461Z,18.55
2019-03-29T19:53:47.600Z,20.70
2019-03-29T19:56:20.376Z,22.65
2019-03-29T19:58:52.654Z,16.17
2019-03-29T20:01:24.949Z,15.03
2019-03-29T20:03:57.134Z,16.10
2019-03-29T20:06:29.704Z,15.30
2019-03-29T20:09:01.782Z,19.57
2019-03-29T20:11:34.387Z,11.45
2019-03-29T20:14:06.536Z,16.10
2019-03-29T20:16:39.620Z,11.28
2019-03-29T20:19:11.744Z,12.58
2019-03-29T20:21:44.035Z,14.07
2019-03-29T20:24:16.229Z,13.88
2019-03-29T20:26:48.733Z,13.18
2019-03-29T20:29:20.788Z,12.98
2019-03-29T20:31:52.922Z,12.03
2019-03-29T20:34:24.967Z,15.80
2019-03-29T20:36:56.883Z,12.20
2019-03-29T20:39:28.926Z,20.05
2019-03-29T20:42:01.471Z,13.75
2019-03-29T20:44:33.672Z,12.28
2019-03-29T20:47:06.068Z,12.55
2019-03-29T20:49:38.158Z,11.00
2019-03-29T20:52:10.490Z,12.58
2019-03-29T20:54:43.220Z,12.37
2019-03-29T20:57:15.871Z,10.58
2019-03-29T20:59:49.610Z,10.28
2019-03-29T21:02:24.148Z,14.13
2019-03-29T21:04:56.324Z,11.75
2019-03-29T21:07:28.387Z,13.53
2019-03-29T21:10:00.772Z,13.78
2019-03-29T21:12:33.133Z,13.65
2019-03-29T21:15:05.812Z,11.60
2019-03-29T21:17:38.234Z,13.75
2019-03-29T21:20:11.110Z,14.43
2019-03-29T21:22:43.277Z,13.25
2019-03-29T21:25:15.352Z,11.33
2019-03-29T21:27:47.512Z,15.70
2019-03-29T21:30:20.025Z,13.53
2019-03-29T21:32:52.528Z,12.80
2019-03-29T21:35:24.459Z,9.93
2019-03-29T21:37:56.330Z,16.20
2019-03-29T21:40:28.424Z,14.83
2019-03-29T21:43:02.009Z,11.18
2019-03-29T21:45:34.454Z,15.03
2019-03-29T21:48:27.253Z,12.55
2019-03-29T21:50:40.788Z,15.90
2019-03-29T21:53:13.535Z,13.43
2019-03-29T21:55:46.566Z,15.98
2019-03-29T21:58:18.732Z,13.75
2019-03-29T22:00:50.600Z,14.10
2019-03-29T22:03:22.839Z,10.50
2019-03-29T22:05:54.821Z,11.33
2019-03-29T22:08:26.838Z,11.73
2019-03-29T22:10:59.428Z,12.45
2019-03-29T22:13:31.567Z,15.65
2019-03-29T22:16:03.807Z,12.40
2019-03-29T22:18:38.153Z,10.70
2019-03-29T22:21:10.066Z,12.20
2019-03-29T22:23:42.381Z,12.82
2019-03-29T22:26:14.599Z,12.10
2019-03-29T22:28:47.170Z,13.00
2019-03-29T22:31:19.331Z,14.45
2019-03-29T22:33:51.291Z,12.10
2019-03-29T22:36:23.619Z,11.83
2019-03-29T22:38:55.876Z,13.38
2019-03-29T22:41:27.834Z,11.88
2019-03-29T22:43:59.994Z,11.95
2019-03-29T22:46:32.131Z,12.05
2019-03-29T22:49:04.426Z,13.20
2019-03-29T22:51:36.493Z,13.20
2019-03-29T22:54:08.895Z,17.23
2019-03-29T22:56:41.603Z,13.55
2019-03-29T22:59:13.683Z,13.13
2019-03-29T23:01:47.666Z,12.18
2019-03-29T23:04:19.725Z,13.48
2019-03-29T23:06:51.829Z,14.80
2019-03-29T23:09:23.783Z,17.15
2019-03-29T23:11:57.418Z,15.50
2019-03-29T23:14:29.356Z,12.03
2019-03-29T23:17:01.481Z,15.30
2019-03-29T23:19:33.618Z,13.58
2019-03-29T23:22:05.757Z,12.60
2019-03-29T23:24:37.683Z,11.20
2019-03-29T23:27:10.962Z,15.48
2019-03-29T23:29:43.771Z,11.93
2019-03-29T23:32:15.984Z,14.00
2019-03-29T23:34:48.240Z,11.18
2019-03-29T23:37:21.118Z,14.07
2019-03-29T23:39:53.339Z,12.55
2019-03-29T23:42:28.589Z,13.80
2019-03-29T23:45:00.856Z,12.90
2019-03-29T23:47:32.886Z,11.43
2019-03-29T23:50:05.496Z,10.98
2019-03-29T23:52:37.765Z,13.28
2019-03-29T23:55:10.279Z,10.68
2019-03-29T23:57:42.964Z,11.18
